Time;durP1;ratioP1;P1;durP2;ratioP2;P2;SDS_P1;SDS_P2;PMS_P1;PMS_P2;Temp;Humidity;BMP_temperature;BMP_pressure;BME280_temperature;BME280_humidity;BME280_pressure;Samples;Min_cycle;Max_cycle;Signal;HPM_P1;HPM_P2
2022/07/02 00:02:07;;;;;;;1999.90;999.90;;;;;;;;;;5119565;27;21391;-74
2022/07/02 00:04:36;;;;;;;1999.90;999.90;;;;;;;;;;5135916;27;20393;-74
2022/07/02 00:07:05;;;;;;;1999.90;999.90;;;;;;;;;;5126891;27;20440;-75
2022/07/02 00:09:33;;;;;;;1999.90;999.90;;;;;;;;;;5135515;27;20412;-74
2022/07/02 00:12:02;;;;;;;1999.90;999.90;;;;;;;;;;5119461;27;20930;-75
2022/07/02 00:14:30;;;;;;;1999.90;999.90;;;;;;;;;;5130246;27;20394;-74
2022/07/02 00:16:59;;;;;;;1999.90;999.90;;;;;;;;;;5136250;27;20883;-73
2022/07/02 00:19:27;;;;;;;1999.90;999.90;;;;;;;;;;5128069;27;20385;-74
2022/07/02 00:21:55;;;;;;;1999.90;999.90;;;;;;;;;;5119494;27;21226;-74
2022/07/02 00:24:23;;;;;;;1999.90;999.90;;;;;;;;;;5130182;27;20404;-74
2022/07/02 00:26:54;;;;;;;1999.90;999.90;;;;;;;;;;5134481;27;21124;-74
2022/07/02 00:29:30;;;;;;;1999.90;999.90;;;;;;;;;;5125408;27;20396;-74
2022/07/02 00:31:58;;;;;;;1999.90;999.90;;;;;;;;;;5132600;27;20408;-74
2022/07/02 00:34:26;;;;;;;1999.90;999.90;;;;;;;;;;5126342;27;20389;-74
2022/07/02 00:36:55;;;;;;;1999.90;999.90;;;;;;;;;;5110739;27;20487;-74
2022/07/02 00:39:23;;;;;;;1999.90;999.90;;;;;;;;;;5128975;27;20406;-74
2022/07/02 00:41:51;;;;;;;1999.90;999.90;;;;;;;;;;5107516;27;20445;-74
2022/07/02 00:44:22;;;;;;;1999.90;999.90;;;;;;;;;;5123589;27;20384;-74
2022/07/02 00:46:53;;;;;;;1999.90;999.90;;;;;;;;;;5130719;27;20414;-75
2022/07/02 00:49:21;;;;;;;1999.90;999.90;;;;;;;;;;5122775;27;20488;-73
2022/07/02 00:51:49;;;;;;;1999.90;999.90;;;;;;;;;;5129399;27;20420;-74
2022/07/02 00:54:17;;;;;;;1999.90;999.90;;;;;;;;;;5128935;27;20389;-74
2022/07/02 00:56:46;;;;;;;1999.90;999.90;;;;;;;;;;5133252;27;20396;-74
2022/07/02 00:59:14;;;;;;;1999.90;999.90;;;;;;;;;;5130801;27;20400;-74
2022/07/02 01:01:41;;;;;;;1999.90;999.90;;;;;;;;;;5120290;27;20918;-74
2022/07/02 01:04:12;;;;;;;1999.90;999.90;;;;;;;;;;5124179;27;20404;-74
2022/07/02 01:06:41;;;;;;;1999.90;999.90;;;;;;;;;;5129123;27;20404;-75
2022/07/02 01:11:56;;;;;;;1999.90;999.90;;;;;;;;;;5136323;27;20418;-74
2022/07/02 01:14:25;;;;;;;1999.90;999.90;;;;;;;;;;5127092;27;20399;-74
2022/07/02 01:16:52;;;;;;;1999.90;999.90;;;;;;;;;;5136308;27;20992;-73
2022/07/02 01:19:22;;;;;;;1999.90;999.90;;;;;;;;;;5132080;27;20392;-75
2022/07/02 01:22:09;;;;;;;1999.90;999.90;;;;;;;;;;5129077;27;20410;-74
2022/07/02 01:24:38;;;;;;;1999.90;999.90;;;;;;;;;;5129921;27;20395;-73
2022/07/02 01:27:06;;;;;;;1999.90;999.90;;;;;;;;;;5132891;27;20392;-74
2022/07/02 01:29:34;;;;;;;1999.90;999.90;;;;;;;;;;5143399;27;20391;-74
2022/07/02 01:32:03;;;;;;;1999.90;999.90;;;;;;;;;;5122287;27;20417;-75
2022/07/02 01:34:34;;;;;;;1999.90;999.90;;;;;;;;;;5122450;27;20382;-74
2022/07/02 01:37:02;;;;;;;1999.90;999.90;;;;;;;;;;5131575;27;21111;-74
2022/07/02 01:39:29;;;;;;;1999.90;999.90;;;;;;;;;;5131431;27;20458;-74
2022/07/02 01:41:58;;;;;;;1999.90;999.90;;;;;;;;;;5129539;27;20797;-74
2022/07/02 01:44:26;;;;;;;1999.90;999.90;;;;;;;;;;5125358;27;20411;-73
2022/07/02 01:46:54;;;;;;;1999.90;999.90;;;;;;;;;;5139672;27;20471;-74
2022/07/02 01:49:22;;;;;;;1999.90;999.90;;;;;;;;;;5125826;27;21191;-74
2022/07/02 01:51:49;;;;;;;1999.90;999.90;;;;;;;;;;5119837;27;20409;-74
2022/07/02 01:54:17;;;;;;;1999.90;999.90;;;;;;;;;;5133224;27;20396;-74
2022/07/02 01:56:45;;;;;;;1999.90;999.90;;;;;;;;;;5134926;27;20488;-74
2022/07/02 01:59:14;;;;;;;1999.90;999.90;;;;;;;;;;5093747;27;20405;-74
2022/07/02 02:01:42;;;;;;;1999.90;999.90;;;;;;;;;;5113417;27;20989;-73
2022/07/02 02:04:10;;;;;;;1999.90;999.90;;;;;;;;;;5121273;27;20893;-73
2022/07/02 02:06:39;;;;;;;1999.90;999.90;;;;;;;;;;5122661;27;20407;-74
2022/07/02 02:09:07;;;;;;;1999.90;999.90;;;;;;;;;;5112279;27;20385;-74
2022/07/02 02:11:35;;;;;;;1999.90;999.90;;;;;;;;;;5121511;27;20406;-74
2022/07/02 02:14:03;;;;;;;1999.90;999.90;;;;;;;;;;5125751;27;20417;-73
2022/07/02 02:16:32;;;;;;;1999.90;999.90;;;;;;;;;;5135462;27;20474;-72
2022/07/02 02:19:00;;;;;;;1999.90;999.90;;;;;;;;;;5122686;27;20401;-72
2022/07/02 02:21:29;;;;;;;1999.90;999.90;;;;;;;;;;5136629;27;20452;-73
2022/07/02 02:23:57;;;;;;;1999.90;999.90;;;;;;;;;;5122699;27;20384;-73
2022/07/02 02:26:25;;;;;;;1999.90;999.90;;;;;;;;;;5134558;27;20404;-72
2022/07/02 02:28:53;;;;;;;1999.90;999.90;;;;;;;;;;5120917;27;20402;-74
2022/07/02 02:31:21;;;;;;;1999.90;999.90;;;;;;;;;;5139722;27;20412;-73
2022/07/02 02:33:51;;;;;;;1999.90;999.90;;;;;;;;;;5133791;27;21265;-74
2022/07/02 02:36:19;;;;;;;1999.90;999.90;;;;;;;;;;5131168;27;20476;-74
2022/07/02 02:38:47;;;;;;;1999.90;999.90;;;;;;;;;;5139064;27;20413;-74
2022/07/02 02:41:15;;;;;;;1999.90;999.90;;;;;;;;;;5132489;27;20432;-73
2022/07/02 02:43:43;;;;;;;1999.90;999.90;;;;;;;;;;5124450;27;20397;-74
2022/07/02 02:46:11;;;;;;;1999.90;999.90;;;;;;;;;;5130613;27;21244;-75
2022/07/02 02:48:39;;;;;;;1999.90;999.90;;;;;;;;;;5124755;27;20402;-75
2022/07/02 02:51:09;;;;;;;1999.90;999.90;;;;;;;;;;5119551;27;20404;-74
2022/07/02 02:53:37;;;;;;;1999.90;999.90;;;;;;;;;;5119972;27;20415;-74
2022/07/02 02:56:05;;;;;;;1999.90;999.90;;;;;;;;;;5124852;27;20772;-75
2022/07/02 02:58:33;;;;;;;1999.90;999.90;;;;;;;;;;5136350;27;20443;-74
2022/07/02 03:01:01;;;;;;;1999.90;999.90;;;;;;;;;;5132888;27;20475;-74
2022/07/02 03:03:29;;;;;;;1999.90;999.90;;;;;;;;;;5133292;27;20412;-74
2022/07/02 03:05:57;;;;;;;1999.90;999.90;;;;;;;;;;5126743;27;20435;-74
2022/07/02 03:08:26;;;;;;;1999.90;999.90;;;;;;;;;;5138294;27;20506;-74
2022/07/02 03:10:54;;;;;;;1999.90;999.90;;;;;;;;;;5121590;27;20789;-74
2022/07/02 03:13:22;;;;;;;1999.90;999.90;;;;;;;;;;5131966;27;20407;-74
2022/07/02 03:15:49;;;;;;;1999.90;999.90;;;;;;;;;;5123405;27;20859;-74
2022/07/02 03:18:17;;;;;;;1999.90;999.90;;;;;;;;;;5123086;27;20400;-74
2022/07/02 03:20:51;;;;;;;1999.90;999.90;;;;;;;;;;5117744;27;20467;-74
2022/07/02 03:23:19;;;;;;;1999.90;999.90;;;;;;;;;;5120937;27;21261;-74
2022/07/02 03:25:48;;;;;;;1999.90;999.90;;;;;;;;;;5120165;27;20484;-75
2022/07/02 03:28:16;;;;;;;1999.90;999.90;;;;;;;;;;5121379;27;20393;-74
2022/07/02 03:30:44;;;;;;;1999.90;999.90;;;;;;;;;;5131188;27;20400;-73
2022/07/02 03:33:12;;;;;;;1999.90;999.90;;;;;;;;;;5121882;27;20382;-74
2022/07/02 03:35:39;;;;;;;1999.90;999.90;;;;;;;;;;5122905;27;20398;-73
2022/07/02 03:38:07;;;;;;;1999.90;999.90;;;;;;;;;;5129610;27;20433;-73
2022/07/02 03:40:35;;;;;;;1999.90;999.90;;;;;;;;;;5120099;27;21250;-74
2022/07/02 03:43:04;;;;;;;1999.90;999.90;;;;;;;;;;5139303;27;20397;-74
2022/07/02 03:45:32;;;;;;;1999.90;999.90;;;;;;;;;;5122454;27;20477;-74
2022/07/02 03:48:00;;;;;;;1999.90;999.90;;;;;;;;;;5121428;27;21767;-74
2022/07/02 03:50:27;;;;;;;1999.90;999.90;;;;;;;;;;5122935;27;20440;-73
2022/07/02 03:52:55;;;;;;;1999.90;999.90;;;;;;;;;;5112989;27;20380;-75
2022/07/02 03:55:24;;;;;;;1999.90;999.90;;;;;;;;;;5131662;27;20433;-74
2022/07/02 03:57:52;;;;;;;1999.90;999.90;;;;;;;;;;5130675;27;20406;-74
2022/07/02 04:00:21;;;;;;;1999.90;999.90;;;;;;;;;;5125195;27;20397;-74
2022/07/02 04:02:51;;;;;;;1999.90;999.90;;;;;;;;;;5093582;27;20482;-74
2022/07/02 04:05:19;;;;;;;1999.90;999.90;;;;;;;;;;5124957;27;20437;-75
2022/07/02 04:07:47;;;;;;;1999.90;999.90;;;;;;;;;;5117716;27;20429;-74
2022/07/02 04:10:15;;;;;;;1999.90;999.90;;;;;;;;;;5121516;27;20891;-75
2022/07/02 04:12:43;;;;;;;1999.90;999.90;;;;;;;;;;5128473;27;20462;-74
2022/07/02 04:15:11;;;;;;;1999.90;999.90;;;;;;;;;;5113310;27;20399;-74
2022/07/02 04:17:40;;;;;;;1999.90;999.90;;;;;;;;;;5131464;27;20450;-74
2022/07/02 04:20:08;;;;;;;1999.90;999.90;;;;;;;;;;5120371;27;20855;-75
2022/07/02 04:22:36;;;;;;;1999.90;999.90;;;;;;;;;;5101752;27;20393;-74
2022/07/02 04:25:04;;;;;;;1999.90;999.90;;;;;;;;;;5100914;27;20819;-74
2022/07/02 04:27:32;;;;;;;1999.90;999.90;;;;;;;;;;5119260;27;20409;-74
2022/07/02 04:30:00;;;;;;;1999.90;999.90;;;;;;;;;;5134087;27;20928;-75
2022/07/02 04:32:35;;;;;;;1999.90;999.90;;;;;;;;;;5131055;27;20407;-74
2022/07/02 04:35:05;;;;;;;1999.90;999.90;;;;;;;;;;5125224;27;20458;-74
2022/07/02 04:37:32;;;;;;;1999.90;999.90;;;;;;;;;;5131321;27;20389;-73
2022/07/02 04:40:01;;;;;;;1999.90;999.90;;;;;;;;;;5140224;27;20397;-72
2022/07/02 04:42:29;;;;;;;1999.90;999.90;;;;;;;;;;5122144;27;20432;-74
2022/07/02 04:44:57;;;;;;;1999.90;999.90;;;;;;;;;;5126572;27;20488;-73
2022/07/02 04:47:25;;;;;;;1999.90;999.90;;;;;;;;;;5133811;27;20429;-73
2022/07/02 04:49:53;;;;;;;1999.90;999.90;;;;;;;;;;5127423;27;20404;-72
2022/07/02 04:52:22;;;;;;;1999.90;999.90;;;;;;;;;;5122639;27;20898;-72
2022/07/02 04:54:51;;;;;;;1999.90;999.90;;;;;;;;;;5119969;27;20389;-72
2022/07/02 04:57:19;;;;;;;1999.90;999.90;;;;;;;;;;5112146;27;20397;-73
2022/07/02 04:59:47;;;;;;;1999.90;999.90;;;;;;;;;;5115634;27;20419;-73
2022/07/02 05:02:15;;;;;;;1999.90;999.90;;;;;;;;;;5126116;27;20824;-73
2022/07/02 05:04:42;;;;;;;1999.90;999.90;;;;;;;;;;5124573;27;20490;-73
2022/07/02 05:07:11;;;;;;;1999.90;999.90;;;;;;;;;;5129724;27;20892;-76
2022/07/02 05:09:40;;;;;;;1999.90;999.90;;;;;;;;;;5127001;27;20413;-73
2022/07/02 05:12:09;;;;;;;1999.90;999.90;;;;;;;;;;5118076;27;20483;-73
2022/07/02 05:14:38;;;;;;;1999.90;999.90;;;;;;;;;;5113467;27;20481;-74
2022/07/02 05:17:06;;;;;;;1999.90;999.90;;;;;;;;;;5120914;27;20492;-72
2022/07/02 05:19:34;;;;;;;1999.90;999.90;;;;;;;;;;5113168;27;20413;-72
2022/07/02 05:22:02;;;;;;;1999.90;999.90;;;;;;;;;;5108979;27;20401;-72
2022/07/02 05:24:30;;;;;;;1999.90;999.90;;;;;;;;;;5118797;27;20379;-72
2022/07/02 05:26:59;;;;;;;1999.90;999.90;;;;;;;;;;5116045;27;20471;-72
2022/07/02 05:29:27;;;;;;;1999.90;999.90;;;;;;;;;;5123428;27;20398;-73
2022/07/02 05:31:55;;;;;;;1999.90;999.90;;;;;;;;;;5126131;27;20409;-73
2022/07/02 05:34:23;;;;;;;1999.90;999.90;;;;;;;;;;5136188;27;20386;-74
2022/07/02 05:36:50;;;;;;;1999.90;999.90;;;;;;;;;;5132144;27;20403;-72
2022/07/02 05:39:18;;;;;;;1999.90;999.90;;;;;;;;;;5100114;27;20483;-73
2022/07/02 05:41:46;;;;;;;1999.90;999.90;;;;;;;;;;5119970;27;20386;-72
2022/07/02 05:44:15;;;;;;;1999.90;999.90;;;;;;;;;;5119148;27;20402;-72
2022/07/02 05:46:43;;;;;;;1999.90;999.90;;;;;;;;;;5128267;27;20500;-72
2022/07/02 05:49:11;;;;;;;1999.90;999.90;;;;;;;;;;5127194;27;20398;-72
2022/07/02 05:51:42;;;;;;;1999.90;999.90;;;;;;;;;;5128729;27;20386;-73
2022/07/02 05:54:10;;;;;;;1999.90;999.90;;;;;;;;;;5133205;27;20409;-73
2022/07/02 05:56:38;;;;;;;1999.90;999.90;;;;;;;;;;5113418;27;20479;-73
2022/07/02 05:59:06;;;;;;;1999.90;999.90;;;;;;;;;;5120008;27;20416;-73
2022/07/02 06:01:35;;;;;;;1999.90;999.90;;;;;;;;;;5116002;27;20472;-73
2022/07/02 06:04:03;;;;;;;1999.90;999.90;;;;;;;;;;5118649;27;20392;-74
2022/07/02 06:09:17;;;;;;;1999.90;999.90;;;;;;;;;;5124727;27;20397;-73
2022/07/02 06:11:45;;;;;;;1999.90;999.90;;;;;;;;;;5118189;27;20401;-73
2022/07/02 06:14:12;;;;;;;1999.90;999.90;;;;;;;;;;5108141;27;20402;-72
2022/07/02 06:16:42;;;;;;;1999.90;999.90;;;;;;;;;;5119683;27;21136;-73
2022/07/02 06:19:10;;;;;;;1999.90;999.90;;;;;;;;;;5105459;27;20948;-73
2022/07/02 06:21:39;;;;;;;1999.90;999.90;;;;;;;;;;5084380;27;20820;-74
2022/07/02 06:24:10;;;;;;;1999.90;999.90;;;;;;;;;;5102684;27;20431;-73
2022/07/02 06:26:38;;;;;;;1999.90;999.90;;;;;;;;;;5099876;27;20400;-72
2022/07/02 06:29:06;;;;;;;1999.90;999.90;;;;;;;;;;5124589;27;20395;-72
2022/07/02 06:31:34;;;;;;;1999.90;999.90;;;;;;;;;;5117774;27;20409;-71
2022/07/02 06:34:03;;;;;;;1999.90;999.90;;;;;;;;;;5112546;27;20385;-73
2022/07/02 06:36:31;;;;;;;1999.90;999.90;;;;;;;;;;5103072;27;20400;-73
2022/07/02 06:38:59;;;;;;;1999.90;999.90;;;;;;;;;;5117584;27;20404;-73
2022/07/02 06:44:12;;;;;;;1999.90;999.90;;;;;;;;;;5083469;27;20460;-73
2022/07/02 06:46:40;;;;;;;1999.90;999.90;;;;;;;;;;5121872;27;20408;-73
2022/07/02 06:49:09;;;;;;;1999.90;999.90;;;;;;;;;;5105805;27;20429;-74
2022/07/02 06:51:37;;;;;;;1999.90;999.90;;;;;;;;;;5120476;27;21132;-72
2022/07/02 06:54:05;;;;;;;1999.90;999.90;;;;;;;;;;5121310;27;20395;-74
2022/07/02 06:56:36;;;;;;;1999.90;999.90;;;;;;;;;;5096943;27;20433;-71
2022/07/02 06:59:04;;;;;;;1999.90;999.90;;;;;;;;;;5113984;27;20401;-72
2022/07/02 07:01:32;;;;;;;1999.90;999.90;;;;;;;;;;5110670;27;20396;-71
2022/07/02 07:04:00;;;;;;;1999.90;999.90;;;;;;;;;;5124306;27;21691;-71
2022/07/02 07:06:29;;;;;;;1999.90;999.90;;;;;;;;;;5126855;27;20408;-76
2022/07/02 07:08:57;;;;;;;1999.90;999.90;;;;;;;;;;5106916;27;20421;-73
2022/07/02 07:11:25;;;;;;;1999.90;999.90;;;;;;;;;;5094679;27;21239;-73
2022/07/02 07:13:53;;;;;;;1999.90;999.90;;;;;;;;;;5119225;27;20880;-72
2022/07/02 07:16:20;;;;;;;1999.90;999.90;;;;;;;;;;5119297;27;20398;-67
2022/07/02 07:18:49;;;;;;;1999.90;999.90;;;;;;;;;;5124751;27;20507;-73
2022/07/02 07:21:17;;;;;;;1999.90;999.90;;;;;;;;;;5115269;27;20378;-72
2022/07/02 07:23:46;;;;;;;1999.90;999.90;;;;;;;;;;5127145;27;20412;-72
2022/07/02 07:26:14;;;;;;;1999.90;999.90;;;;;;;;;;5127988;27;20969;-73
2022/07/02 07:28:42;;;;;;;1999.90;999.90;;;;;;;;;;5124911;27;20888;-74
2022/07/02 07:31:10;;;;;;;1999.90;999.90;;;;;;;;;;5125588;27;20392;-70
2022/07/02 07:33:39;;;;;;;1999.90;999.90;;;;;;;;;;5108367;27;20406;-74
2022/07/02 07:36:07;;;;;;;1999.90;999.90;;;;;;;;;;5110349;27;20390;-87
2022/07/02 07:38:35;;;;;;;1999.90;999.90;;;;;;;;;;5124179;27;20474;-71
2022/07/02 07:41:04;;;;;;;1999.90;999.90;;;;;;;;;;5132267;27;20378;-71
2022/07/02 07:43:32;;;;;;;1999.90;999.90;;;;;;;;;;5132581;27;20459;-74
2022/07/02 07:46:00;;;;;;;1999.90;999.90;;;;;;;;;;5108298;27;20531;-71
2022/07/02 07:48:28;;;;;;;1999.90;999.90;;;;;;;;;;5131320;27;20448;-72
2022/07/02 07:50:56;;;;;;;1999.90;999.90;;;;;;;;;;5128180;27;20592;-70
2022/07/02 07:53:23;;;;;;;1999.90;999.90;;;;;;;;;;5101570;27;20953;-71
2022/07/02 07:55:51;;;;;;;1999.90;999.90;;;;;;;;;;5127937;27;20891;-70
2022/07/02 07:58:21;;;;;;;1999.90;999.90;;;;;;;;;;5120736;27;20409;-71
2022/07/02 08:00:49;;;;;;;1999.90;999.90;;;;;;;;;;5122633;27;20551;-72
2022/07/02 08:03:17;;;;;;;1999.90;999.90;;;;;;;;;;5125880;27;20836;-72
2022/07/02 08:05:46;;;;;;;1999.90;999.90;;;;;;;;;;5134723;27;20491;-71
2022/07/02 08:08:14;;;;;;;1999.90;999.90;;;;;;;;;;5105837;27;20397;-70
2022/07/02 08:10:42;;;;;;;1999.90;999.90;;;;;;;;;;5124207;27;20401;-70
2022/07/02 08:13:10;;;;;;;1999.90;999.90;;;;;;;;;;5124053;27;20385;-70
2022/07/02 08:15:39;;;;;;;1999.90;999.90;;;;;;;;;;5113979;27;20392;-70
2022/07/02 08:18:08;;;;;;;1999.90;999.90;;;;;;;;;;5123694;27;20428;-70
2022/07/02 08:20:36;;;;;;;1999.90;999.90;;;;;;;;;;5088696;27;20387;-72
2022/07/02 08:23:04;;;;;;;1999.90;999.90;;;;;;;;;;5110265;27;20794;-69
2022/07/02 08:25:32;;;;;;;1999.90;999.90;;;;;;;;;;5116563;27;20378;-69
2022/07/02 08:27:59;;;;;;;1999.90;999.90;;;;;;;;;;5118989;27;20406;-70
2022/07/02 08:30:27;;;;;;;1999.90;999.90;;;;;;;;;;5096691;27;20404;-70
2022/07/02 08:32:56;;;;;;;1999.90;999.90;;;;;;;;;;5128477;27;20393;-69
2022/07/02 08:35:24;;;;;;;1999.90;999.90;;;;;;;;;;5134627;27;20410;-69
2022/07/02 08:37:52;;;;;;;1999.90;999.90;;;;;;;;;;5120016;27;20400;-70
2022/07/02 08:40:25;;;;;;;1999.90;999.90;;;;;;;;;;5128473;27;20387;-69
2022/07/02 08:42:54;;;;;;;1999.90;999.90;;;;;;;;;;5132446;27;20397;-72
2022/07/02 08:45:22;;;;;;;1999.90;999.90;;;;;;;;;;5132476;27;20400;-72
2022/07/02 08:47:51;;;;;;;1999.90;999.90;;;;;;;;;;5136336;27;20438;-72
2022/07/02 08:50:21;;;;;;;1999.90;999.90;;;;;;;;;;5121527;27;20476;-71
2022/07/02 08:52:50;;;;;;;1999.90;999.90;;;;;;;;;;5130428;27;20455;-72
2022/07/02 08:55:18;;;;;;;1999.90;999.90;;;;;;;;;;5136206;27;20391;-73
2022/07/02 08:57:46;;;;;;;1999.90;999.90;;;;;;;;;;5111544;27;20484;-73
2022/07/02 09:00:15;;;;;;;1999.90;999.90;;;;;;;;;;5093034;27;20382;-74
2022/07/02 09:02:43;;;;;;;1999.90;999.90;;;;;;;;;;5110927;27;20398;-73
2022/07/02 09:05:12;;;;;;;1999.90;999.90;;;;;;;;;;5102243;27;21241;-73
2022/07/02 09:07:41;;;;;;;1999.90;999.90;;;;;;;;;;5099636;27;20520;-71
2022/07/02 09:10:11;;;;;;;1999.90;999.90;;;;;;;;;;5128647;27;20446;-72
2022/07/02 09:12:40;;;;;;;1999.90;999.90;;;;;;;;;;5130891;27;20418;-73
2022/07/02 09:15:17;;;;;;;1999.90;999.90;;;;;;;;;;5113370;27;20460;-70
2022/07/02 09:17:45;;;;;;;1999.90;999.90;;;;;;;;;;5122838;27;20445;-70
2022/07/02 09:20:13;;;;;;;1999.90;999.90;;;;;;;;;;5128520;27;20424;-70
2022/07/02 09:22:46;;;;;;;1999.90;999.90;;;;;;;;;;5119483;27;20401;-71
2022/07/02 09:25:15;;;;;;;1999.90;999.90;;;;;;;;;;5111274;27;20394;-70
2022/07/02 09:27:44;;;;;;;1999.90;999.90;;;;;;;;;;5112189;27;20514;-70
2022/07/02 09:30:12;;;;;;;1999.90;999.90;;;;;;;;;;5119703;27;20413;-70
2022/07/02 09:32:41;;;;;;;1999.90;999.90;;;;;;;;;;5117810;27;20390;-70
2022/07/02 09:35:17;;;;;;;1999.90;999.90;;;;;;;;;;5113111;27;20481;-70
2022/07/02 09:37:46;;;;;;;1999.90;999.90;;;;;;;;;;5130053;27;20441;-70
2022/07/02 09:40:14;;;;;;;1999.90;999.90;;;;;;;;;;5133549;27;21094;-69
2022/07/02 09:42:46;;;;;;;1999.90;999.90;;;;;;;;;;5131063;27;20505;-70
2022/07/02 09:45:14;;;;;;;1999.90;999.90;;;;;;;;;;5127273;27;20485;-70
2022/07/02 09:47:48;;;;;;;1999.90;999.90;;;;;;;;;;5132666;27;20747;-70
2022/07/02 09:50:17;;;;;;;1999.90;999.90;;;;;;;;;;5122372;27;20512;-70
2022/07/02 09:52:50;;;;;;;1999.90;999.90;;;;;;;;;;5121932;27;21647;-70
2022/07/02 09:55:22;;;;;;;1999.90;999.90;;;;;;;;;;5122164;27;20502;-70
2022/07/02 09:57:50;;;;;;;1999.90;999.90;;;;;;;;;;5128032;27;21316;-70
2022/07/02 10:00:19;;;;;;;1999.90;999.90;;;;;;;;;;5122921;27;21501;-69
2022/07/02 10:02:50;;;;;;;1999.90;999.90;;;;;;;;;;5126975;27;20466;-69
2022/07/02 10:05:22;;;;;;;1999.90;999.90;;;;;;;;;;5134214;27;20392;-70
2022/07/02 10:07:52;;;;;;;1999.90;999.90;;;;;;;;;;5140187;27;20511;-70
2022/07/02 10:10:22;;;;;;;1999.90;999.90;;;;;;;;;;5116805;27;20744;-70
2022/07/02 10:12:51;;;;;;;1999.90;999.90;;;;;;;;;;5130087;27;20394;-70
2022/07/02 10:15:21;;;;;;;1999.90;999.90;;;;;;;;;;5127900;27;20385;-70
2022/07/02 10:17:50;;;;;;;1999.90;999.90;;;;;;;;;;5129548;27;20397;-70
2022/07/02 10:20:18;;;;;;;1999.90;999.90;;;;;;;;;;5126929;27;20455;-69
2022/07/02 10:22:46;;;;;;;1999.90;999.90;;;;;;;;;;5118431;27;20497;-70
2022/07/02 10:25:19;;;;;;;1999.90;999.90;;;;;;;;;;5118833;27;32841;-72
2022/07/02 10:27:47;;;;;;;1999.90;999.90;;;;;;;;;;5130027;27;20418;-72
2022/07/02 10:30:16;;;;;;;1999.90;999.90;;;;;;;;;;5117164;27;20438;-73
2022/07/02 10:32:50;;;;;;;1999.90;999.90;;;;;;;;;;5115787;27;20412;-72
2022/07/02 10:35:18;;;;;;;1999.90;999.90;;;;;;;;;;5123424;27;20484;-73
2022/07/02 10:37:45;;;;;;;1999.90;999.90;;;;;;;;;;5116770;27;20493;-72
2022/07/02 10:40:18;;;;;;;1999.90;999.90;;;;;;;;;;5117993;27;20377;-72
2022/07/02 10:42:48;;;;;;;1999.90;999.90;;;;;;;;;;5133168;27;20765;-69
2022/07/02 10:45:17;;;;;;;1999.90;999.90;;;;;;;;;;5115630;27;20392;-69
2022/07/02 10:47:55;;;;;;;1999.90;999.90;;;;;;;;;;5140289;27;20404;-69
2022/07/02 10:50:26;;;;;;;1999.90;999.90;;;;;;;;;;5122956;27;20398;-69
2022/07/02 10:52:54;;;;;;;1999.90;999.90;;;;;;;;;;5128082;27;20419;-74
2022/07/02 10:55:28;;;;;;;1999.90;999.90;;;;;;;;;;5138670;27;21485;-74
2022/07/02 10:57:56;;;;;;;1999.90;999.90;;;;;;;;;;5130235;27;20416;-74
2022/07/02 11:00:29;;;;;;;1999.90;999.90;;;;;;;;;;5136717;27;20380;-73
2022/07/02 11:02:57;;;;;;;1999.90;999.90;;;;;;;;;;5125260;27;20443;-70
2022/07/02 11:05:26;;;;;;;1999.90;999.90;;;;;;;;;;5131490;27;20438;-69
2022/07/02 11:07:53;;;;;;;1999.90;999.90;;;;;;;;;;5119224;27;20416;-67
2022/07/02 11:10:29;;;;;;;1999.90;999.90;;;;;;;;;;5117326;27;20462;-67
2022/07/02 11:13:00;;;;;;;1999.90;999.90;;;;;;;;;;5116006;27;20400;-68
2022/07/02 11:15:33;;;;;;;1999.90;999.90;;;;;;;;;;5125162;27;21146;-68
2022/07/02 11:18:03;;;;;;;1999.90;999.90;;;;;;;;;;5125162;27;20455;-67
2022/07/02 11:20:34;;;;;;;1999.90;999.90;;;;;;;;;;5124630;27;20498;-67
2022/07/02 11:23:02;;;;;;;1999.90;999.90;;;;;;;;;;5128712;27;20483;-67
2022/07/02 11:25:32;;;;;;;1999.90;999.90;;;;;;;;;;5132336;27;20433;-67
2022/07/02 11:28:01;;;;;;;1999.90;999.90;;;;;;;;;;5129286;27;20395;-67
2022/07/02 11:30:30;;;;;;;1999.90;999.90;;;;;;;;;;5126183;27;20474;-67
2022/07/02 11:32:58;;;;;;;1999.90;999.90;;;;;;;;;;5128585;27;21436;-67
2022/07/02 11:35:27;;;;;;;1999.90;999.90;;;;;;;;;;5130785;27;20389;-67
2022/07/02 11:37:55;;;;;;;1999.90;999.90;;;;;;;;;;5119938;27;20400;-67
2022/07/02 11:40:23;;;;;;;1999.90;999.90;;;;;;;;;;5117668;27;20397;-68
2022/07/02 11:42:53;;;;;;;1999.90;999.90;;;;;;;;;;5115180;27;21739;-67
2022/07/02 11:45:20;;;;;;;1999.90;999.90;;;;;;;;;;5115258;27;21117;-67
2022/07/02 11:47:49;;;;;;;1999.90;999.90;;;;;;;;;;5108612;27;20408;-67
2022/07/02 11:50:27;;;;;;;1999.90;999.90;;;;;;;;;;5093048;27;21420;-67
2022/07/02 11:52:54;;;;;;;1999.90;999.90;;;;;;;;;;5116953;27;20518;-67
2022/07/02 11:55:23;;;;;;;1999.90;999.90;;;;;;;;;;5101447;27;20415;-68
2022/07/02 11:57:51;;;;;;;1999.90;999.90;;;;;;;;;;5120836;27;20417;-68
2022/07/02 12:00:20;;;;;;;1999.90;999.90;;;;;;;;;;5113722;27;20415;-68
2022/07/02 12:02:48;;;;;;;1999.90;999.90;;;;;;;;;;5117241;27;20439;-68
2022/07/02 12:05:17;;;;;;;1999.90;999.90;;;;;;;;;;5111462;27;20402;-68
2022/07/02 12:07:45;;;;;;;1999.90;999.90;;;;;;;;;;5102049;27;20421;-68
2022/07/02 12:10:13;;;;;;;1999.90;999.90;;;;;;;;;;5111645;27;20818;-67
2022/07/02 12:12:41;;;;;;;1999.90;999.90;;;;;;;;;;5110251;27;21317;-68
2022/07/02 12:15:10;;;;;;;1999.90;999.90;;;;;;;;;;5121297;27;20406;-69
2022/07/02 12:17:48;;;;;;;1999.90;999.90;;;;;;;;;;5113916;27;20410;-69
2022/07/02 12:20:17;;;;;;;1999.90;999.90;;;;;;;;;;5127405;27;20442;-69
2022/07/02 12:22:52;;;;;;;1999.90;999.90;;;;;;;;;;5080733;27;20401;-69
2022/07/02 12:25:19;;;;;;;1999.90;999.90;;;;;;;;;;5116187;27;21133;-69
2022/07/02 12:27:52;;;;;;;1999.90;999.90;;;;;;;;;;5107596;27;20449;-69
2022/07/02 12:30:19;;;;;;;1999.90;999.90;;;;;;;;;;5119242;27;20423;-69
2022/07/02 12:32:53;;;;;;;1999.90;999.90;;;;;;;;;;5110981;27;20391;-69
2022/07/02 12:35:21;;;;;;;1999.90;999.90;;;;;;;;;;5099496;27;20421;-69
2022/07/02 12:37:52;;;;;;;1999.90;999.90;;;;;;;;;;5111822;27;20435;-69
2022/07/02 12:40:22;;;;;;;1999.90;999.90;;;;;;;;;;5114159;27;20943;-69
2022/07/02 12:42:51;;;;;;;1999.90;999.90;;;;;;;;;;5106641;27;20386;-70
2022/07/02 12:45:23;;;;;;;1999.90;999.90;;;;;;;;;;5121330;27;20450;-69
2022/07/02 12:47:57;;;;;;;1999.90;999.90;;;;;;;;;;5119251;27;20453;-69
2022/07/02 12:50:25;;;;;;;1999.90;999.90;;;;;;;;;;5119341;27;20953;-68
2022/07/02 12:52:54;;;;;;;1999.90;999.90;;;;;;;;;;5102341;27;20427;-69
2022/07/02 12:55:24;;;;;;;1999.90;999.90;;;;;;;;;;5123994;27;20567;-68
2022/07/02 12:57:56;;;;;;;1999.90;999.90;;;;;;;;;;5130053;27;20448;-69
2022/07/02 13:00:24;;;;;;;1999.90;999.90;;;;;;;;;;5127742;27;20590;-69
2022/07/02 13:03:01;;;;;;;1999.90;999.90;;;;;;;;;;5130042;27;20482;-69
2022/07/02 13:05:30;;;;;;;1999.90;999.90;;;;;;;;;;5108188;27;20385;-69
2022/07/02 13:07:58;;;;;;;1999.90;999.90;;;;;;;;;;5128222;27;21437;-69
2022/07/02 13:10:26;;;;;;;1999.90;999.90;;;;;;;;;;5115213;27;20448;-69
2022/07/02 13:12:54;;;;;;;1999.90;999.90;;;;;;;;;;5127395;27;20417;-69
2022/07/02 13:15:22;;;;;;;1999.90;999.90;;;;;;;;;;5133358;27;20540;-69
2022/07/02 13:17:49;;;;;;;1999.90;999.90;;;;;;;;;;5136802;27;20890;-69
2022/07/02 13:20:19;;;;;;;1999.90;999.90;;;;;;;;;;5118582;27;20396;-68
2022/07/02 13:22:47;;;;;;;1999.90;999.90;;;;;;;;;;5128958;27;20858;-69
2022/07/02 13:25:16;;;;;;;1999.90;999.90;;;;;;;;;;5118850;27;20389;-68
2022/07/02 13:27:44;;;;;;;1999.90;999.90;;;;;;;;;;5135951;27;20424;-69
2022/07/02 13:30:13;;;;;;;1999.90;999.90;;;;;;;;;;5119409;27;20431;-69
2022/07/02 13:32:42;;;;;;;1999.90;999.90;;;;;;;;;;5130835;27;20777;-67
2022/07/02 13:35:11;;;;;;;1999.90;999.90;;;;;;;;;;5130262;27;20379;-69
2022/07/02 13:37:40;;;;;;;1999.90;999.90;;;;;;;;;;5133819;27;21398;-69
2022/07/02 13:40:10;;;;;;;1999.90;999.90;;;;;;;;;;5139254;27;20397;-69
2022/07/02 13:42:37;;;;;;;1999.90;999.90;;;;;;;;;;5121108;27;20406;-70
2022/07/02 13:45:06;;;;;;;1999.90;999.90;;;;;;;;;;5125350;27;20386;-70
2022/07/02 13:47:34;;;;;;;1999.90;999.90;;;;;;;;;;5089043;22;20890;-76
2022/07/02 13:50:03;;;;;;;1999.90;999.90;;;;;;;;;;5123106;27;20567;-74
2022/07/02 13:52:31;;;;;;;1999.90;999.90;;;;;;;;;;5053059;27;20794;-75
2022/07/02 13:55:00;;;;;;;1999.90;999.90;;;;;;;;;;5051617;28;20395;-75
2022/07/02 13:57:28;;;;;;;1999.90;999.90;;;;;;;;;;5037122;28;20426;-75
2022/07/02 13:59:55;;;;;;;1999.90;999.90;;;;;;;;;;5055192;27;20401;-73